sensor_id;sensor_type;location;lat;lon;timestamp;pressure;altitude;pressure_sealevel;temperature;humidity
70127;BME280;57491;42.694;23.314;2023-11-21T00:00:11;94966.56;;;8.60;63.70
70127;BME280;57491;42.694;23.314;2023-11-21T00:02:40;94970.44;;;8.56;62.88
70127;BME280;57491;42.694;23.314;2023-11-21T00:05:08;94954.00;;;8.40;63.02
70127;BME280;57491;42.694;23.314;2023-11-21T00:07:35;94975.84;;;8.46;65.18
70127;BME280;57491;42.694;23.314;2023-11-21T00:10:03;94967.59;;;8.42;64.22
70127;BME280;57491;42.694;23.314;2023-11-21T00:12:32;94967.31;;;8.37;64.13
70127;BME280;57491;42.694;23.314;2023-11-21T00:14:59;94961.13;;;8.38;65.09
70127;BME280;57491;42.694;23.314;2023-11-21T00:17:27;94969.91;;;8.37;64.00
70127;BME280;57491;42.694;23.314;2023-11-21T00:19:55;94975.41;;;8.34;64.48
70127;BME280;57491;42.694;23.314;2023-11-21T00:22:22;94972.75;;;8.42;66.80
70127;BME280;57491;42.694;23.314;2023-11-21T00:24:49;94971.00;;;8.43;65.10
70127;BME280;57491;42.694;23.314;2023-11-21T00:27:17;94970.88;;;8.36;65.49
70127;BME280;57491;42.694;23.314;2023-11-21T00:29:44;94959.53;;;8.37;66.45
70127;BME280;57491;42.694;23.314;2023-11-21T00:32:11;94954.00;;;8.40;66.29
70127;BME280;57491;42.694;23.314;2023-11-21T00:34:39;94954.47;;;8.44;66.32
70127;BME280;57491;42.694;23.314;2023-11-21T00:37:07;94962.41;;;8.42;65.68
70127;BME280;57491;42.694;23.314;2023-11-21T00:39:35;94963.56;;;8.40;63.65
70127;BME280;57491;42.694;23.314;2023-11-21T00:42:02;94956.63;;;8.32;65.20
70127;BME280;57491;42.694;23.314;2023-11-21T00:44:30;94957.25;;;8.34;65.23
70127;BME280;57491;42.694;23.314;2023-11-21T00:46:57;94963.41;;;8.33;65.98
70127;BME280;57491;42.694;23.314;2023-11-21T00:49:25;94959.84;;;8.34;66.51
70127;BME280;57491;42.694;23.314;2023-11-21T00:51:53;94964.88;;;8.28;65.18
70127;BME280;57491;42.694;23.314;2023-11-21T00:54:22;94971.66;;;8.29;65.29
70127;BME280;57491;42.694;23.314;2023-11-21T00:56:49;94960.34;;;8.22;66.77
70127;BME280;57491;42.694;23.314;2023-11-21T00:59:16;94953.09;;;8.17;65.98
70127;BME280;57491;42.694;23.314;2023-11-21T01:01:43;94957.00;;;8.13;66.50
70127;BME280;57491;42.694;23.314;2023-11-21T01:04:11;94948.25;;;8.14;67.49
70127;BME280;57491;42.694;23.314;2023-11-21T01:06:39;94955.06;;;8.07;67.50
70127;BME280;57491;42.694;23.314;2023-11-21T01:09:06;94948.94;;;8.00;67.15
70127;BME280;57491;42.694;23.314;2023-11-21T01:11:36;94951.53;;;8.00;67.42
70127;BME280;57491;42.694;23.314;2023-11-21T01:14:06;94946.34;;;8.00;67.31
70127;BME280;57491;42.694;23.314;2023-11-21T01:16:34;94939.25;;;7.94;67.42
70127;BME280;57491;42.694;23.314;2023-11-21T01:19:02;94941.34;;;7.90;68.05
70127;BME280;57491;42.694;23.314;2023-11-21T01:21:30;94937.34;;;7.88;67.96
70127;BME280;57491;42.694;23.314;2023-11-21T01:23:58;94917.63;;;7.79;68.54
70127;BME280;57491;42.694;23.314;2023-11-21T01:26:25;94949.44;;;7.95;65.81
70127;BME280;57491;42.694;23.314;2023-11-21T01:28:53;94931.03;;;7.82;66.33
70127;BME280;57491;42.694;23.314;2023-11-21T01:31:20;94948.97;;;7.92;66.73
70127;BME280;57491;42.694;23.314;2023-11-21T01:33:48;94945.09;;;7.88;67.23
70127;BME280;57491;42.694;23.314;2023-11-21T01:36:15;94942.16;;;7.91;67.55
70127;BME280;57491;42.694;23.314;2023-11-21T01:38:42;94941.34;;;7.90;66.97
70127;BME280;57491;42.694;23.314;2023-11-21T01:41:09;94951.88;;;7.89;67.94
70127;BME280;57491;42.694;23.314;2023-11-21T01:43:38;94951.53;;;7.84;66.90
70127;BME280;57491;42.694;23.314;2023-11-21T01:46:08;94953.63;;;7.88;68.45
70127;BME280;57491;42.694;23.314;2023-11-21T01:48:36;94942.34;;;7.81;68.10
70127;BME280;57491;42.694;23.314;2023-11-21T01:51:04;94932.50;;;7.77;67.79
70127;BME280;57491;42.694;23.314;2023-11-21T01:53:31;94938.50;;;7.69;68.19
70127;BME280;57491;42.694;23.314;2023-11-21T01:55:59;94940.09;;;7.62;69.31
70127;BME280;57491;42.694;23.314;2023-11-21T01:58:26;94952.22;;;7.61;69.08
70127;BME280;57491;42.694;23.314;2023-11-21T02:00:54;94949.50;;;7.55;68.12
70127;BME280;57491;42.694;23.314;2023-11-21T02:03:22;94954.03;;;7.53;67.50
70127;BME280;57491;42.694;23.314;2023-11-21T02:05:50;94945.16;;;7.47;68.30
70127;BME280;57491;42.694;23.314;2023-11-21T02:08:17;94937.38;;;7.39;68.81
70127;BME280;57491;42.694;23.314;2023-11-21T02:10:45;94952.25;;;7.45;68.31
70127;BME280;57491;42.694;23.314;2023-11-21T02:13:13;94939.16;;;7.39;67.68
70127;BME280;57491;42.694;23.314;2023-11-21T02:15:42;94946.59;;;7.42;68.23
70127;BME280;57491;42.694;23.314;2023-11-21T02:18:09;94947.09;;;7.37;67.01
70127;BME280;57491;42.694;23.314;2023-11-21T02:20:38;94942.88;;;7.36;68.16
70127;BME280;57491;42.694;23.314;2023-11-21T02:23:08;94931.25;;;7.32;67.70
70127;BME280;57491;42.694;23.314;2023-11-21T02:25:36;94915.09;;;7.06;67.88
70127;BME280;57491;42.694;23.314;2023-11-21T02:28:04;94934.81;;;7.23;68.08
70127;BME280;57491;42.694;23.314;2023-11-21T02:30:32;94938.53;;;7.29;68.38
70127;BME280;57491;42.694;23.314;2023-11-21T02:32:59;94921.72;;;7.25;69.05
70127;BME280;57491;42.694;23.314;2023-11-21T02:35:27;94925.59;;;7.29;68.90
70127;BME280;57491;42.694;23.314;2023-11-21T02:37:56;94936.75;;;7.29;67.85
70127;BME280;57491;42.694;23.314;2023-11-21T02:40:24;94938.06;;;7.33;68.40
70127;BME280;57491;42.694;23.314;2023-11-21T02:42:52;94941.25;;;7.35;67.41
70127;BME280;57491;42.694;23.314;2023-11-21T02:45:19;94939.34;;;7.37;67.18
70127;BME280;57491;42.694;23.314;2023-11-21T02:47:48;94918.97;;;7.26;66.33
70127;BME280;57491;42.694;23.314;2023-11-21T02:50:16;94936.75;;;7.29;67.76
70127;BME280;57491;42.694;23.314;2023-11-21T02:52:44;94924.13;;;7.18;67.13
70127;BME280;57491;42.694;23.314;2023-11-21T02:55:11;94925.59;;;7.12;66.79
70127;BME280;57491;42.694;23.314;2023-11-21T02:57:40;94935.13;;;7.20;67.87
70127;BME280;57491;42.694;23.314;2023-11-21T03:00:08;94917.50;;;7.07;68.35
70127;BME280;57491;42.694;23.314;2023-11-21T03:02:38;94938.84;;;7.17;69.00
70127;BME280;57491;42.694;23.314;2023-11-21T03:05:07;94926.06;;;7.16;69.28
70127;BME280;57491;42.694;23.314;2023-11-21T03:07:35;94925.44;;;7.22;69.29
70127;BME280;57491;42.694;23.314;2023-11-21T03:10:02;94931.25;;;7.24;70.23
70127;BME280;57491;42.694;23.314;2023-11-21T03:12:30;94929.78;;;7.30;70.24
70127;BME280;57491;42.694;23.314;2023-11-21T03:14:59;94935.44;;;7.25;69.97
70127;BME280;57491;42.694;23.314;2023-11-21T03:17:27;94932.38;;;7.30;69.52
70127;BME280;57491;42.694;23.314;2023-11-21T03:19:55;94898.31;;;7.02;69.36
70127;BME280;57491;42.694;23.314;2023-11-21T03:22:23;94945.16;;;7.31;69.33
70127;BME280;57491;42.694;23.314;2023-11-21T03:24:50;94945.81;;;7.33;69.18
70127;BME280;57491;42.694;23.314;2023-11-21T03:27:17;94941.91;;;7.21;69.48
70127;BME280;57491;42.694;23.314;2023-11-21T03:29:44;94952.44;;;7.28;68.38
70127;BME280;57491;42.694;23.314;2023-11-21T03:32:13;94955.16;;;7.26;67.69
70127;BME280;57491;42.694;23.314;2023-11-21T03:37:38;94941.13;;;7.29;68.58
70127;BME280;57491;42.694;23.314;2023-11-21T03:40:08;94947.88;;;7.30;67.04
70127;BME280;57491;42.694;23.314;2023-11-21T03:42:35;94925.44;;;7.22;68.73
70127;BME280;57491;42.694;23.314;2023-11-21T03:45:03;94913.94;;;7.16;68.54
70127;BME280;57491;42.694;23.314;2023-11-21T03:47:32;94926.91;;;7.33;67.32
70127;BME280;57491;42.694;23.314;2023-11-21T03:49:59;94886.47;;;7.07;67.53
70127;BME280;57491;42.694;23.314;2023-11-21T03:52:26;94922.84;;;7.22;66.88
70127;BME280;57491;42.694;23.314;2023-11-21T03:54:54;94912.84;;;7.19;67.40
70127;BME280;57491;42.694;23.314;2023-11-21T03:57:22;94919.91;;;7.25;66.52
70127;BME280;57491;42.694;23.314;2023-11-21T03:59:49;94922.50;;;7.17;66.80
70127;BME280;57491;42.694;23.314;2023-11-21T04:02:16;94917.34;;;6.93;67.04
70127;BME280;57491;42.694;23.314;2023-11-21T04:04:45;94920.41;;;6.96;67.05
70127;BME280;57491;42.694;23.314;2023-11-21T04:07:12;94893.25;;;6.60;66.60
70127;BME280;57491;42.694;23.314;2023-11-21T04:09:40;94899.84;;;6.54;67.25
70127;BME280;57491;42.694;23.314;2023-11-21T04:12:07;94919.06;;;6.60;67.98
70127;BME280;57491;42.694;23.314;2023-11-21T04:14:36;94910.84;;;6.64;68.65
70127;BME280;57491;42.694;23.314;2023-11-21T04:17:03;94913.44;;;6.72;69.40
70127;BME280;57491;42.694;23.314;2023-11-21T04:19:30;94907.94;;;6.76;70.71
70127;BME280;57491;42.694;23.314;2023-11-21T04:21:59;94913.09;;;6.76;69.75
70127;BME280;57491;42.694;23.314;2023-11-21T04:24:31;94903.44;;;6.69;69.32
70127;BME280;57491;42.694;23.314;2023-11-21T04:27:00;94861.75;;;6.48;69.17
70127;BME280;57491;42.694;23.314;2023-11-21T04:29:28;94909.56;;;6.68;68.63
70127;BME280;57491;42.694;23.314;2023-11-21T04:31:56;94912.81;;;6.79;70.43
70127;BME280;57491;42.694;23.314;2023-11-21T04:34:23;94918.31;;;6.84;71.04
70127;BME280;57491;42.694;23.314;2023-11-21T04:36:50;94914.59;;;6.86;70.72
70127;BME280;57491;42.694;23.314;2023-11-21T04:39:19;94908.28;;;6.81;69.84
70127;BME280;57491;42.694;23.314;2023-11-21T04:41:46;94912.66;;;6.88;69.18
70127;BME280;57491;42.694;23.314;2023-11-21T04:44:13;94918.66;;;6.89;69.30
70127;BME280;57491;42.694;23.314;2023-11-21T04:46:42;94914.78;;;6.93;70.03
70127;BME280;57491;42.694;23.314;2023-11-21T04:49:09;94918.31;;;7.00;69.47
70127;BME280;57491;42.694;23.314;2023-11-21T04:51:36;94922.53;;;7.01;70.72
70127;BME280;57491;42.694;23.314;2023-11-21T04:54:04;94932.88;;;7.01;70.50
70127;BME280;57491;42.694;23.314;2023-11-21T04:56:34;94933.81;;;7.00;70.69
70127;BME280;57491;42.694;23.314;2023-11-21T04:59:01;94919.59;;;6.96;69.87
70127;BME280;57491;42.694;23.314;2023-11-21T05:01:28;94920.28;;;6.98;69.95
70127;BME280;57491;42.694;23.314;2023-11-21T05:03:55;94923.47;;;6.92;69.61
70127;BME280;57491;42.694;23.314;2023-11-21T05:06:23;94921.06;;;6.90;69.28
70127;BME280;57491;42.694;23.314;2023-11-21T05:08:50;94924.78;;;6.88;69.11
70127;BME280;57491;42.694;23.314;2023-11-21T05:11:25;94913.63;;;6.87;69.55
70127;BME280;57491;42.694;23.314;2023-11-21T05:13:54;94914.44;;;6.88;69.63
70127;BME280;57491;42.694;23.314;2023-11-21T05:16:25;94909.22;;;6.71;69.13
70127;BME280;57491;42.694;23.314;2023-11-21T05:18:53;94913.09;;;6.76;69.41
70127;BME280;57491;42.694;23.314;2023-11-21T05:21:23;94909.41;;;6.78;70.16
70127;BME280;57491;42.694;23.314;2023-11-21T05:23:50;94912.63;;;6.80;70.18
70127;BME280;57491;42.694;23.314;2023-11-21T05:26:18;94913.63;;;6.79;69.84
70127;BME280;57491;42.694;23.314;2023-11-21T05:28:45;94927.19;;;6.81;70.59
70127;BME280;57491;42.694;23.314;2023-11-21T05:31:13;94929.28;;;6.86;69.39
70127;BME280;57491;42.694;23.314;2023-11-21T05:33:41;94928.16;;;6.88;70.97
70127;BME280;57491;42.694;23.314;2023-11-21T05:36:08;94927.34;;;6.88;70.27
70127;BME280;57491;42.694;23.314;2023-11-21T05:38:36;94938.00;;;6.85;70.32
70127;BME280;57491;42.694;23.314;2023-11-21T05:41:04;94924.59;;;6.89;69.99
70127;BME280;57491;42.694;23.314;2023-11-21T05:43:32;94925.75;;;6.95;69.22
70127;BME280;57491;42.694;23.314;2023-11-21T05:46:01;94928.31;;;6.95;68.00
70127;BME280;57491;42.694;23.314;2023-11-21T05:48:29;94930.13;;;7.02;69.15
70127;BME280;57491;42.694;23.314;2023-11-21T05:50:57;94925.44;;;7.06;68.63
70127;BME280;57491;42.694;23.314;2023-11-21T05:53:24;94924.28;;;7.16;66.93
70127;BME280;57491;42.694;23.314;2023-11-21T05:55:51;94925.09;;;7.17;67.65
70127;BME280;57491;42.694;23.314;2023-11-21T05:58:19;94912.50;;;7.14;67.83
70127;BME280;57491;42.694;23.314;2023-11-21T06:00:46;94932.22;;;7.23;68.46
70127;BME280;57491;42.694;23.314;2023-11-21T06:03:13;94929.97;;;7.28;67.56
70127;BME280;57491;42.694;23.314;2023-11-21T06:05:41;94936.59;;;7.23;67.58
70127;BME280;57491;42.694;23.314;2023-11-21T06:08:09;94907.00;;;7.01;67.57
70127;BME280;57491;42.694;23.314;2023-11-21T06:10:36;94918.78;;;7.03;68.31
70127;BME280;57491;42.694;23.314;2023-11-21T06:13:05;94914.44;;;6.96;67.17
70127;BME280;57491;42.694;23.314;2023-11-21T06:15:32;94940.94;;;7.06;67.33
70127;BME280;57491;42.694;23.314;2023-11-21T06:18:00;94937.38;;;7.07;67.06
70127;BME280;57491;42.694;23.314;2023-11-21T06:20:27;94941.28;;;7.19;67.96
70127;BME280;57491;42.694;23.314;2023-11-21T06:22:56;94938.03;;;7.25;69.35
70127;BME280;57491;42.694;23.314;2023-11-21T06:25:23;94947.09;;;7.37;67.97
70127;BME280;57491;42.694;23.314;2023-11-21T06:27:50;94950.50;;;7.38;66.80
70127;BME280;57491;42.694;23.314;2023-11-21T06:30:19;94936.09;;;7.35;66.81
70127;BME280;57491;42.694;23.314;2023-11-21T06:32:47;94929.94;;;7.36;66.13
70127;BME280;57491;42.694;23.314;2023-11-21T06:35:15;94952.91;;;7.55;66.92
70127;BME280;57491;42.694;23.314;2023-11-21T06:37:42;94958.72;;;7.74;65.62
70127;BME280;57491;42.694;23.314;2023-11-21T06:40:15;94943.47;;;7.87;63.92
70127;BME280;57491;42.694;23.314;2023-11-21T06:42:42;94960.53;;;8.12;64.42
70127;BME280;57491;42.694;23.314;2023-11-21T06:45:10;94963.75;;;8.30;62.46
70127;BME280;57491;42.694;23.314;2023-11-21T06:47:38;94945.59;;;8.38;61.57
70127;BME280;57491;42.694;23.314;2023-11-21T06:50:05;94969.06;;;8.76;61.54
70127;BME280;57491;42.694;23.314;2023-11-21T06:52:34;94960.72;;;8.88;61.35
70127;BME280;57491;42.694;23.314;2023-11-21T06:55:01;94955.69;;;9.18;60.48
70127;BME280;57491;42.694;23.314;2023-11-21T06:57:31;94962.28;;;9.43;59.60
70127;BME280;57491;42.694;23.314;2023-11-21T06:59:58;94952.44;;;9.76;58.62
70127;BME280;57491;42.694;23.314;2023-11-21T07:02:25;94959.00;;;10.01;56.65
70127;BME280;57491;42.694;23.314;2023-11-21T07:04:52;94962.38;;;10.24;55.57
70127;BME280;57491;42.694;23.314;2023-11-21T07:07:19;94966.38;;;10.27;54.61
70127;BME280;57491;42.694;23.314;2023-11-21T07:09:47;94964.69;;;10.34;55.80
70127;BME280;57491;42.694;23.314;2023-11-21T07:12:15;94949.53;;;10.38;54.22
70127;BME280;57491;42.694;23.314;2023-11-21T07:14:43;94945.50;;;10.50;55.33
70127;BME280;57491;42.694;23.314;2023-11-21T07:17:10;94915.84;;;10.44;54.61
70127;BME280;57491;42.694;23.314;2023-11-21T07:19:38;94946.19;;;10.73;54.35
70127;BME280;57491;42.694;23.314;2023-11-21T07:22:07;94937.13;;;10.69;54.36
70127;BME280;57491;42.694;23.314;2023-11-21T07:24:35;94946.25;;;10.80;54.07
70127;BME280;57491;42.694;23.314;2023-11-21T07:27:02;94958.44;;;10.94;54.08
70127;BME280;57491;42.694;23.314;2023-11-21T07:29:30;94943.00;;;10.92;53.26
70127;BME280;57491;42.694;23.314;2023-11-21T07:32:00;94960.06;;;11.16;53.76
70127;BME280;57491;42.694;23.314;2023-11-21T07:34:27;94955.16;;;11.28;52.67
70127;BME280;57491;42.694;23.314;2023-11-21T07:36:54;94959.19;;;11.51;53.62
70127;BME280;57491;42.694;23.314;2023-11-21T07:39:21;94953.44;;;11.56;51.74
70127;BME280;57491;42.694;23.314;2023-11-21T07:41:49;94929.31;;;11.47;51.93
70127;BME280;57491;42.694;23.314;2023-11-21T07:44:16;94945.19;;;11.74;51.17
70127;BME280;57491;42.694;23.314;2023-11-21T07:46:45;94942.28;;;11.90;50.20
70127;BME280;57491;42.694;23.314;2023-11-21T07:49:14;94943.47;;;12.15;49.76
70127;BME280;57491;42.694;23.314;2023-11-21T07:51:41;94934.06;;;12.21;49.97
70127;BME280;57491;42.694;23.314;2023-11-21T07:54:09;94932.25;;;12.21;49.86
70127;BME280;57491;42.694;23.314;2023-11-21T07:56:37;94935.91;;;12.27;49.45
70127;BME280;57491;42.694;23.314;2023-11-21T07:59:04;94938.91;;;12.24;49.10
70127;BME280;57491;42.694;23.314;2023-11-21T08:01:31;94928.72;;;12.35;48.83
70127;BME280;57491;42.694;23.314;2023-11-21T08:03:58;94927.75;;;12.43;48.60
70127;BME280;57491;42.694;23.314;2023-11-21T08:06:30;94924.09;;;12.31;49.42
70127;BME280;57491;42.694;23.314;2023-11-21T08:08:58;94918.47;;;12.27;49.39
70127;BME280;57491;42.694;23.314;2023-11-21T08:11:26;94921.84;;;12.21;49.56
70127;BME280;57491;42.694;23.314;2023-11-21T08:13:55;94910.22;;;12.24;49.33
70127;BME280;57491;42.694;23.314;2023-11-21T08:16:22;94922.84;;;12.68;49.83
70127;BME280;57491;42.694;23.314;2023-11-21T08:18:50;94921.34;;;13.00;49.56
70127;BME280;57491;42.694;23.314;2023-11-21T08:21:17;94919.59;;;13.20;48.01
70127;BME280;57491;42.694;23.314;2023-11-21T08:23:46;94921.84;;;13.23;47.18
70127;BME280;57491;42.694;23.314;2023-11-21T08:26:19;94916.22;;;13.26;47.55
70127;BME280;57491;42.694;23.314;2023-11-21T08:28:46;94909.78;;;13.35;47.14
70127;BME280;57491;42.694;23.314;2023-11-21T08:31:14;94922.47;;;13.64;46.56
70127;BME280;57491;42.694;23.314;2023-11-21T08:33:41;94922.25;;;13.79;45.91
70127;BME280;57491;42.694;23.314;2023-11-21T08:36:09;94922.63;;;14.09;45.78
70127;BME280;57491;42.694;23.314;2023-11-21T08:38:37;94919.00;;;14.36;45.35
70127;BME280;57491;42.694;23.314;2023-11-21T08:41:07;94919.97;;;14.42;43.66
70127;BME280;57491;42.694;23.314;2023-11-21T08:43:34;94913.31;;;14.32;44.70
70127;BME280;57491;42.694;23.314;2023-11-21T08:46:05;94917.56;;;14.27;45.41
70127;BME280;57491;42.694;23.314;2023-11-21T08:48:35;94917.97;;;14.37;44.81
70127;BME280;57491;42.694;23.314;2023-11-21T08:51:03;94903.66;;;14.46;44.68
70127;BME280;57491;42.694;23.314;2023-11-21T08:53:30;94909.06;;;14.58;44.58
70127;BME280;57491;42.694;23.314;2023-11-21T08:55:59;94905.38;;;14.72;44.12
70127;BME280;57491;42.694;23.314;2023-11-21T08:58:27;94892.97;;;14.99;43.65
70127;BME280;57491;42.694;23.314;2023-11-21T09:00:54;94885.97;;;15.17;42.62
70127;BME280;57491;42.694;23.314;2023-11-21T09:03:22;94889.09;;;15.33;42.49
70127;BME280;57491;42.694;23.314;2023-11-21T09:05:49;94880.44;;;15.32;42.32
70127;BME280;57491;42.694;23.314;2023-11-21T09:08:16;94866.31;;;15.40;42.10
70127;BME280;57491;42.694;23.314;2023-11-21T09:10:44;94849.28;;;15.24;42.60
70127;BME280;57491;42.694;23.314;2023-11-21T09:13:13;94860.41;;;15.13;42.61
70127;BME280;57491;42.694;23.314;2023-11-21T09:15:44;94848.75;;;14.84;42.98
70127;BME280;57491;42.694;23.314;2023-11-21T09:18:13;94841.66;;;14.53;43.43
70127;BME280;57491;42.694;23.314;2023-11-21T09:20:40;94842.91;;;14.44;43.66
70127;BME280;57491;42.694;23.314;2023-11-21T09:23:08;94842.78;;;14.13;43.86
70127;BME280;57491;42.694;23.314;2023-11-21T09:25:36;94837.78;;;14.05;43.37
70127;BME280;57491;42.694;23.314;2023-11-21T09:28:03;94841.63;;;13.96;44.46
70127;BME280;57491;42.694;23.314;2023-11-21T09:30:33;94819.75;;;13.77;44.52
70127;BME280;57491;42.694;23.314;2023-11-21T09:33:03;94808.09;;;13.86;44.66
70127;BME280;57491;42.694;23.314;2023-11-21T09:35:31;94789.53;;;14.01;44.14
70127;BME280;57491;42.694;23.314;2023-11-21T09:37:58;94787.59;;;14.34;43.32
70127;BME280;57491;42.694;23.314;2023-11-21T09:40:27;94791.28;;;14.64;43.25
70127;BME280;57491;42.694;23.314;2023-11-21T09:42:58;94790.66;;;15.25;42.91
70127;BME280;57491;42.694;23.314;2023-11-21T09:45:26;94785.59;;;15.91;41.44
70127;BME280;57491;42.694;23.314;2023-11-21T09:47:55;94780.84;;;16.18;40.09
70127;BME280;57491;42.694;23.314;2023-11-21T09:50:24;94772.09;;;16.42;39.75
70127;BME280;57491;42.694;23.314;2023-11-21T09:52:58;94759.75;;;16.61;39.25
70127;BME280;57491;42.694;23.314;2023-11-21T09:55:34;94745.97;;;16.77;38.61
70127;BME280;57491;42.694;23.314;2023-11-21T09:58:03;94747.94;;;16.82;38.18
70127;BME280;57491;42.694;23.314;2023-11-21T10:00:37;94747.59;;;16.90;38.38
70127;BME280;57491;42.694;23.314;2023-11-21T10:03:06;94740.22;;;17.22;38.04
70127;BME280;57491;42.694;23.314;2023-11-21T10:05:35;94742.97;;;17.85;37.42
70127;BME280;57491;42.694;23.314;2023-11-21T10:08:04;94753.38;;;18.32;35.82
70127;BME280;57491;42.694;23.314;2023-11-21T10:10:35;94740.91;;;18.67;35.06
70127;BME280;57491;42.694;23.314;2023-11-21T10:13:06;94734.22;;;19.59;33.88
70127;BME280;57491;42.694;23.314;2023-11-21T10:15:34;94727.75;;;20.11;33.64
70127;BME280;57491;42.694;23.314;2023-11-21T10:18:02;94736.63;;;20.70;32.45
70127;BME280;57491;42.694;23.314;2023-11-21T10:20:32;94729.31;;;21.09;31.61
70127;BME280;57491;42.694;23.314;2023-11-21T10:23:01;94719.50;;;20.77;31.18
70127;BME280;57491;42.694;23.314;2023-11-21T10:25:30;94711.66;;;20.56;31.47
70127;BME280;57491;42.694;23.314;2023-11-21T10:27:58;94715.22;;;20.23;31.89
70127;BME280;57491;42.694;23.314;2023-11-21T10:30:30;94717.06;;;19.79;32.29
70127;BME280;57491;42.694;23.314;2023-11-21T10:33:01;94712.19;;;19.15;34.21
70127;BME280;57491;42.694;23.314;2023-11-21T10:35:39;94704.03;;;19.00;34.52
70127;BME280;57491;42.694;23.314;2023-11-21T10:38:08;94700.28;;;18.80;34.92
70127;BME280;57491;42.694;23.314;2023-11-21T10:40:38;94697.72;;;18.40;35.06
70127;BME280;57491;42.694;23.314;2023-11-21T10:43:08;94699.16;;;17.91;35.38
70127;BME280;57491;42.694;23.314;2023-11-21T10:45:37;94684.56;;;17.25;37.02
70127;BME280;57491;42.694;23.314;2023-11-21T10:48:08;94695.53;;;16.99;38.21
70127;BME280;57491;42.694;23.314;2023-11-21T10:50:37;94695.97;;;16.61;38.90
70127;BME280;57491;42.694;23.314;2023-11-21T10:53:05;94674.19;;;16.12;39.39
70127;BME280;57491;42.694;23.314;2023-11-21T10:55:33;94684.16;;;15.92;40.77
70127;BME280;57491;42.694;23.314;2023-11-21T10:58:02;94683.38;;;15.55;40.31
70127;BME280;57491;42.694;23.314;2023-11-21T11:00:31;94679.03;;;15.24;41.02
70127;BME280;57491;42.694;23.314;2023-11-21T11:02:58;94667.25;;;15.15;42.32
70127;BME280;57491;42.694;23.314;2023-11-21T11:05:27;94677.00;;;15.08;42.53
70127;BME280;57491;42.694;23.314;2023-11-21T11:07:58;94675.44;;;15.00;41.45
70127;BME280;57491;42.694;23.314;2023-11-21T11:10:29;94670.75;;;14.84;42.20
70127;BME280;57491;42.694;23.314;2023-11-21T11:12:58;94659.16;;;14.73;41.94
70127;BME280;57491;42.694;23.314;2023-11-21T11:15:26;94665.63;;;14.71;41.69
70127;BME280;57491;42.694;23.314;2023-11-21T11:17:54;94660.25;;;14.66;42.05
70127;BME280;57491;42.694;23.314;2023-11-21T11:20:27;94655.06;;;14.59;42.99
70127;BME280;57491;42.694;23.314;2023-11-21T11:23:12;94652.13;;;14.49;43.36
70127;BME280;57491;42.694;23.314;2023-11-21T11:26:01;94646.66;;;14.51;42.82
70127;BME280;57491;42.694;23.314;2023-11-21T11:28:39;94626.97;;;14.48;44.00
70127;BME280;57491;42.694;23.314;2023-11-21T11:31:17;94626.78;;;14.50;44.04
70127;BME280;57491;42.694;23.314;2023-11-21T11:33:53;94626.44;;;14.40;43.74
70127;BME280;57491;42.694;23.314;2023-11-21T11:36:27;94627.25;;;14.40;44.64
70127;BME280;57491;42.694;23.314;2023-11-21T11:38:56;94620.41;;;14.32;45.28
70127;BME280;57491;42.694;23.314;2023-11-21T11:41:27;94619.63;;;14.32;44.43
70127;BME280;57491;42.694;23.314;2023-11-21T11:43:57;94632.50;;;14.34;45.84
70127;BME280;57491;42.694;23.314;2023-11-21T11:46:40;94643.59;;;14.29;45.57
70127;BME280;57491;42.694;23.314;2023-11-21T11:49:08;94641.81;;;14.23;45.14
70127;BME280;57491;42.694;23.314;2023-11-21T11:51:37;94636.63;;;14.16;47.12
70127;BME280;57491;42.694;23.314;2023-11-21T11:54:04;94645.47;;;14.15;45.68
70127;BME280;57491;42.694;23.314;2023-11-21T11:56:33;94651.50;;;14.16;46.08
70127;BME280;57491;42.694;23.314;2023-11-21T11:59:04;94640.69;;;14.12;48.84
70127;BME280;57491;42.694;23.314;2023-11-21T12:01:34;94614.25;;;13.96;49.26
70127;BME280;57491;42.694;23.314;2023-11-21T12:04:24;94638.59;;;13.90;49.44
70127;BME280;57491;42.694;23.314;2023-11-21T12:06:59;94643.91;;;13.76;49.99
70127;BME280;57491;42.694;23.314;2023-11-21T12:09:29;94626.50;;;13.57;52.09
70127;BME280;57491;42.694;23.314;2023-11-21T12:11:57;94642.97;;;13.64;50.78
70127;BME280;57491;42.694;23.314;2023-11-21T12:14:27;94646.22;;;13.47;50.32
70127;BME280;57491;42.694;23.314;2023-11-21T12:16:54;94644.06;;;13.37;52.41
70127;BME280;57491;42.694;23.314;2023-11-21T12:19:21;94641.06;;;13.33;53.41
70127;BME280;57491;42.694;23.314;2023-11-21T12:21:49;94645.09;;;13.29;52.00
70127;BME280;57491;42.694;23.314;2023-11-21T12:24:18;94634.69;;;13.16;53.85
70127;BME280;57491;42.694;23.314;2023-11-21T12:26:45;94643.13;;;13.18;53.39
70127;BME280;57491;42.694;23.314;2023-11-21T12:29:13;94630.28;;;13.17;53.64
70127;BME280;57491;42.694;23.314;2023-11-21T12:31:44;94637.50;;;13.08;54.42
70127;BME280;57491;42.694;23.314;2023-11-21T12:34:11;94650.53;;;13.02;54.33
70127;BME280;57491;42.694;23.314;2023-11-21T12:36:39;94652.78;;;12.72;54.24
70127;BME280;57491;42.694;23.314;2023-11-21T12:39:06;94642.19;;;12.60;55.86
70127;BME280;57491;42.694;23.314;2023-11-21T12:41:35;94639.75;;;12.52;55.71
70127;BME280;57491;42.694;23.314;2023-11-21T12:44:03;94638.75;;;12.53;56.16
70127;BME280;57491;42.694;23.314;2023-11-21T12:46:30;94638.38;;;12.56;56.43
70127;BME280;57491;42.694;23.314;2023-11-21T12:49:01;94627.13;;;12.56;56.27
70127;BME280;57491;42.694;23.314;2023-11-21T12:51:28;94624.31;;;12.57;56.66
70127;BME280;57491;42.694;23.314;2023-11-21T12:53:56;94600.25;;;12.55;56.53
70127;BME280;57491;42.694;23.314;2023-11-21T12:56:24;94608.88;;;12.62;57.31
70127;BME280;57491;42.694;23.314;2023-11-21T12:58:54;94598.22;;;12.57;55.32
70127;BME280;57491;42.694;23.314;2023-11-21T13:01:25;94596.25;;;12.46;55.96
70127;BME280;57491;42.694;23.314;2023-11-21T13:03:54;94594.22;;;12.48;56.08